Time;durP1;ratioP1;P1;durP2;ratioP2;P2;SDS_P1;SDS_P2;PMS_P1;PMS_P2;Temp;Humidity;BMP_temperature;BMP_pressure;BME280_temperature;BME280_humidity;BME280_pressure;Samples;Min_cycle;Max_cycle;Signal;HPM_P1;HPM_P2
2022/11/04 00:02:44;;;;;;;31.52;21.08;;;17.10;99.90;;;;;;4914677;29;20044;-67
2022/11/04 00:05:48;;;;;;;33.88;22.80;;;17.10;99.90;;;;;;4914641;29;20047;-69
2022/11/04 00:08:56;;;;;;;35.78;22.75;;;16.90;99.90;;;;;;4914464;29;20051;-69
2022/11/04 00:18:44;;;;;;;32.75;20.30;;;16.60;99.90;;;;;;4917414;29;20063;-70
2022/11/04 00:28:43;;;;;;;25.98;18.55;;;16.90;99.90;;;;;;4917591;29;20052;-68
2022/11/04 00:35:11;;;;;;;25.75;19.33;;;16.90;99.90;;;;;;4917608;29;20051;-69
2022/11/04 00:38:16;;;;;;;30.05;18.85;;;17.00;99.90;;;;;;4917461;29;20276;-68
2022/11/04 00:41:26;;;;;;;24.60;17.65;;;17.00;99.90;;;;;;4917420;29;20075;-69
2022/11/04 00:44:31;;;;;;;32.13;19.08;;;17.00;99.90;;;;;;4917681;29;20499;-68
2022/11/04 00:47:35;;;;;;;25.10;17.17;;;17.00;99.90;;;;;;4917388;29;20051;-69
2022/11/04 00:50:39;;;;;;;25.13;17.85;;;17.00;99.90;;;;;;4916646;29;20055;-68
2022/11/04 00:53:43;;;;;;;30.50;18.63;;;16.90;99.90;;;;;;4916473;29;20051;-69
2022/11/04 00:56:49;;;;;;;25.33;17.33;;;17.00;99.90;;;;;;4916430;29;20051;-70
2022/11/04 00:59:54;;;;;;;26.80;17.23;;;16.90;99.90;;;;;;4916356;29;20408;-69
2022/11/04 01:02:59;;;;;;;22.98;17.38;;;16.90;99.90;;;;;;4917194;29;20059;-69
2022/11/04 01:06:05;;;;;;;29.30;15.95;;;16.90;99.90;;;;;;4917306;29;20417;-69
2022/11/04 01:09:11;;;;;;;25.70;15.10;;;17.00;99.90;;;;;;4917087;29;20062;-69
2022/11/04 01:12:15;;;;;;;23.58;14.85;;;17.10;99.90;;;;;;4916075;29;20047;-69
2022/11/04 01:15:20;;;;;;;22.80;13.48;;;17.10;99.90;;;;;;4917162;29;20043;-69
2022/11/04 01:18:24;;;;;;;24.83;13.75;;;17.10;99.90;;;;;;4916768;29;20047;-69
2022/11/04 01:21:29;;;;;;;22.02;14.20;;;17.10;99.90;;;;;;4917005;29;20059;-69
2022/11/04 01:24:33;;;;;;;17.50;13.13;;;17.20;99.90;;;;;;4916922;29;20408;-69
2022/11/04 01:27:37;;;;;;;16.88;12.27;;;17.20;99.90;;;;;;4916715;29;20051;-69
2022/11/04 01:30:41;;;;;;;14.50;11.50;;;17.20;99.90;;;;;;4916513;29;20056;-70
2022/11/04 01:33:44;;;;;;;20.15;10.50;;;17.30;99.90;;;;;;4916689;29;20051;-69
2022/11/04 01:36:48;;;;;;;14.00;9.73;;;17.40;99.90;;;;;;4916835;29;20043;-69
2022/11/04 01:39:52;;;;;;;10.73;8.45;;;17.50;99.90;;;;;;4916367;29;20063;-69
2022/11/04 01:42:56;;;;;;;11.68;8.40;;;17.60;99.90;;;;;;4916477;29;20039;-71
2022/11/04 01:46:01;;;;;;;11.68;8.48;;;17.60;99.90;;;;;;4916681;29;20499;-69
2022/11/04 01:49:17;;;;;;;13.75;8.02;;;17.70;99.90;;;;;;4915954;29;20129;-69
2022/11/04 01:52:31;;;;;;;11.60;7.50;;;17.70;99.90;;;;;;4916270;29;20055;-69
2022/11/04 01:55:42;;;;;;;12.13;8.30;;;17.80;99.90;;;;;;4916128;29;20507;-69
2022/11/04 01:58:51;;;;;;;12.40;8.25;;;17.80;99.90;;;;;;4914897;29;20511;-68
2022/11/04 02:01:55;;;;;;;11.23;7.60;;;17.80;99.90;;;;;;4916234;29;20054;-68
2022/11/04 02:04:59;;;;;;;16.27;8.30;;;17.80;99.90;;;;;;4915472;29;20512;-68
2022/11/04 02:08:05;;;;;;;12.80;8.55;;;17.80;99.90;;;;;;4916109;29;20055;-67
2022/11/04 02:14:42;;;;;;;15.85;8.52;;;17.80;99.90;;;;;;4916153;29;20055;-68
2022/11/04 02:17:52;;;;;;;11.70;8.52;;;17.80;99.90;;;;;;4915114;29;20047;-68
2022/11/04 02:21:21;;;;;;;18.00;9.18;;;17.70;99.90;;;;;;4916079;29;20055;-68
2022/11/04 02:24:58;;;;;;;12.43;8.43;;;17.70;99.90;;;;;;4915525;29;20497;-69
2022/11/04 02:28:11;;;;;;;17.65;9.90;;;17.70;99.90;;;;;;4914618;29;20592;-68
2022/11/04 02:31:21;;;;;;;18.70;10.73;;;17.60;99.90;;;;;;4915270;29;20110;-68
2022/11/04 02:35:03;;;;;;;15.18;10.43;;;17.50;99.90;;;;;;4915373;29;20404;-68
2022/11/04 02:38:14;;;;;;;18.17;10.77;;;17.50;99.90;;;;;;4915952;29;20506;-68
2022/11/04 02:41:43;;;;;;;19.92;12.20;;;17.50;99.90;;;;;;4914446;29;20074;-68
2022/11/04 02:45:10;;;;;;;16.10;11.23;;;17.40;99.90;;;;;;4915477;29;20051;-68
2022/11/04 02:48:24;;;;;;;21.35;12.85;;;17.40;99.90;;;;;;4914997;29;20416;-68
2022/11/04 02:51:38;;;;;;;28.50;13.43;;;17.30;99.90;;;;;;4915317;29;20063;-69
2022/11/04 02:55:06;;;;;;;21.42;13.20;;;17.20;99.90;;;;;;4914952;29;20043;-68
2022/11/04 02:58:16;;;;;;;21.20;13.35;;;17.00;99.90;;;;;;4914452;29;20051;-68
2022/11/04 03:01:25;;;;;;;20.92;13.55;;;16.80;99.90;;;;;;4915033;29;20161;-68
2022/11/04 03:04:33;;;;;;;21.60;13.45;;;16.80;99.90;;;;;;4914815;29;20113;-68
2022/11/04 03:07:40;;;;;;;22.73;13.95;;;16.80;99.90;;;;;;4914882;29;20043;-68
2022/11/04 03:10:52;;;;;;;20.10;13.05;;;16.80;99.90;;;;;;4915147;29;20047;-69
2022/11/04 03:14:13;;;;;;;20.00;12.68;;;16.80;99.90;;;;;;4914913;29;20051;-69
2022/11/04 03:17:25;;;;;;;20.77;12.98;;;16.80;99.90;;;;;;4914928;29;20060;-68
2022/11/04 03:20:30;;;;;;;21.75;12.40;;;16.90;99.90;;;;;;4914584;29;20063;-69
2022/11/04 03:23:35;;;;;;;19.20;12.93;;;16.90;99.90;;;;;;4914692;29;20047;-69
2022/11/04 03:26:45;;;;;;;17.10;12.05;;;16.90;99.90;;;;;;4914925;29;20048;-69
2022/11/04 03:30:16;;;;;;;16.60;12.32;;;16.90;99.90;;;;;;4914798;29;20043;-68
2022/11/04 03:33:32;;;;;;;17.88;12.13;;;16.90;99.90;;;;;;4914814;29;20060;-69
2022/11/04 03:36:37;;;;;;;15.15;11.15;;;16.90;99.90;;;;;;4914667;29;20055;-68
2022/11/04 03:39:40;;;;;;;17.75;11.85;;;17.00;99.90;;;;;;4914791;29;20511;-68
2022/11/04 03:42:56;;;;;;;20.55;12.77;;;16.90;99.90;;;;;;4914391;29;20043;-68
2022/11/04 03:46:00;;;;;;;14.98;11.68;;;16.90;99.90;;;;;;4914898;29;20055;-69
2022/11/04 03:49:05;;;;;;;16.85;12.45;;;16.80;99.90;;;;;;4914711;29;20059;-69
2022/11/04 03:52:09;;;;;;;16.88;11.82;;;16.70;99.90;;;;;;4915601;29;20512;-69
2022/11/04 03:55:13;;;;;;;16.30;11.02;;;16.60;99.90;;;;;;4917416;29;20071;-69
2022/11/04 03:58:52;;;;;;;13.52;10.70;;;16.60;99.90;;;;;;4918314;29;20409;-69
2022/11/04 04:02:09;;;;;;;18.92;10.63;;;16.70;99.90;;;;;;4918365;29;20063;-69
2022/11/04 04:05:30;;;;;;;17.83;10.27;;;16.70;99.90;;;;;;4918267;29;20527;-68
2022/11/04 04:08:40;;;;;;;18.77;10.80;;;16.70;99.90;;;;;;4918539;29;20070;-68
2022/11/04 04:11:47;;;;;;;18.08;11.43;;;16.80;99.90;;;;;;4918105;29;20048;-69
2022/11/04 04:14:56;;;;;;;19.25;11.45;;;16.80;99.90;;;;;;4917872;29;20043;-68
2022/11/04 04:18:05;;;;;;;20.05;11.50;;;16.70;99.90;;;;;;4918063;29;20515;-68
2022/11/04 04:21:14;;;;;;;18.95;11.27;;;16.60;99.90;;;;;;4917193;29;20075;-69
2022/11/04 04:27:44;;;;;;;20.73;10.85;;;16.40;99.90;;;;;;4917881;29;20051;-69
2022/11/04 04:30:49;;;;;;;12.52;9.13;;;16.50;99.90;;;;;;4918255;29;20060;-69
2022/11/04 04:33:53;;;;;;;18.10;10.30;;;16.60;99.90;;;;;;4917842;29;20055;-69
2022/11/04 04:37:03;;;;;;;13.73;8.57;;;16.70;99.90;;;;;;4917570;29;20052;-69
2022/11/04 04:47:01;;;;;;;12.93;6.25;;;17.20;99.90;;;;;;4917212;29;20078;-69
2022/11/04 04:50:06;;;;;;;12.13;6.88;;;17.30;99.90;;;;;;4917531;29;20059;-69
2022/11/04 04:53:10;;;;;;;15.20;6.97;;;17.50;99.90;;;;;;4917040;29;20051;-69
2022/11/04 04:56:14;;;;;;;15.43;6.80;;;17.50;99.90;;;;;;4917514;29;20381;-69
2022/11/04 04:59:18;;;;;;;9.30;6.15;;;17.60;99.90;;;;;;4916876;29;20047;-69
2022/11/04 05:02:22;;;;;;;12.13;6.22;;;17.60;99.90;;;;;;4916901;29;20055;-69
2022/11/04 05:05:26;;;;;;;11.77;6.10;;;17.70;99.90;;;;;;4916464;29;20511;-69
2022/11/04 05:08:30;;;;;;;13.60;6.50;;;17.80;99.90;;;;;;4916804;29;20499;-69
2022/11/04 05:11:34;;;;;;;13.68;6.13;;;17.80;99.90;;;;;;4917036;29;20056;-69
2022/11/04 05:14:38;;;;;;;13.75;6.40;;;17.80;99.90;;;;;;4917108;29;20075;-68
2022/11/04 05:17:42;;;;;;;10.80;6.10;;;17.80;99.90;;;;;;4916534;29;20322;-69
2022/11/04 05:20:46;;;;;;;10.57;5.97;;;17.90;99.90;;;;;;4915637;29;20070;-69
2022/11/04 05:23:50;;;;;;;14.30;5.70;;;18.10;99.90;;;;;;4916003;29;20043;-69
2022/11/04 05:26:54;;;;;;;9.15;4.88;;;18.30;99.90;;;;;;4916767;29;20047;-69
2022/11/04 05:29:58;;;;;;;8.48;4.60;;;18.30;99.90;;;;;;4916496;29;20043;-69
2022/11/04 05:33:03;;;;;;;10.02;5.13;;;18.30;99.90;;;;;;4916786;29;20043;-68
2022/11/04 05:36:09;;;;;;;11.13;5.05;;;18.30;99.90;;;;;;4916255;29;20047;-69
2022/11/04 05:39:12;;;;;;;7.70;4.72;;;18.40;99.90;;;;;;4917591;29;20043;-69
2022/11/04 05:42:17;;;;;;;13.18;5.07;;;18.40;99.90;;;;;;4916373;29;20055;-69
2022/11/04 05:45:21;;;;;;;10.18;5.05;;;18.40;99.80;;;;;;4916296;29;20043;-66
2022/11/04 05:48:25;;;;;;;11.10;5.75;;;18.40;99.90;;;;;;4916158;29;20059;-68
2022/11/04 05:51:29;;;;;;;18.58;5.40;;;18.40;99.80;;;;;;4918271;29;20511;-69
2022/11/04 05:54:37;;;;;;;12.48;4.97;;;18.50;99.60;;;;;;4917740;29;20369;-69
2022/11/04 05:57:40;;;;;;;16.58;5.22;;;18.50;99.40;;;;;;4916404;29;20051;-68
2022/11/04 06:00:45;;;;;;;13.30;5.45;;;18.60;99.30;;;;;;4916650;29;20063;-69
2022/11/04 06:03:50;;;;;;;9.82;4.97;;;18.60;99.40;;;;;;4918053;29;20043;-70
2022/11/04 06:06:54;;;;;;;7.50;4.70;;;18.60;99.30;;;;;;4918668;29;20051;-69
2022/11/04 06:09:59;;;;;;;8.23;4.57;;;18.60;99.00;;;;;;4917089;29;20047;-68
2022/11/04 06:13:03;;;;;;;9.60;4.45;;;18.60;98.80;;;;;;4918005;29;20044;-67
2022/11/04 06:16:07;;;;;;;11.75;4.65;;;18.60;98.80;;;;;;4917028;29;20047;-69
2022/11/04 06:19:11;;;;;;;9.70;4.47;;;18.60;98.50;;;;;;4914945;29;20051;-69
2022/11/04 06:22:17;;;;;;;14.88;4.75;;;18.60;98.40;;;;;;4916078;29;20055;-69
2022/11/04 06:25:21;;;;;;;10.80;4.40;;;18.70;98.00;;;;;;4916574;29;20047;-68
2022/11/04 06:28:25;;;;;;;15.80;5.35;;;18.80;97.40;;;;;;4915782;29;20067;-69
2022/11/04 06:31:29;;;;;;;15.98;4.80;;;18.90;97.00;;;;;;4915897;29;20536;-68
2022/11/04 06:34:33;;;;;;;12.80;5.00;;;19.10;96.60;;;;;;4915629;29;20476;-69
2022/11/04 06:37:37;;;;;;;27.20;6.20;;;19.20;96.30;;;;;;4915093;29;20055;-68
2022/11/04 06:40:41;;;;;;;19.75;7.82;;;19.40;96.40;;;;;;4915286;29;20055;-69
2022/11/04 06:43:45;;;;;;;18.30;8.20;;;19.60;96.20;;;;;;4914531;29;20051;-68
2022/11/04 06:46:49;;;;;;;14.27;5.35;;;19.60;96.40;;;;;;4914821;29;20047;-68
2022/11/04 06:49:53;;;;;;;16.50;8.15;;;19.60;96.50;;;;;;4914633;29;20413;-69
2022/11/04 06:52:57;;;;;;;19.60;6.70;;;19.70;96.40;;;;;;4914843;29;20416;-69
2022/11/04 06:56:02;;;;;;;25.55;7.82;;;19.70;96.40;;;;;;4915204;29;20043;-69
2022/11/04 06:59:08;;;;;;;15.93;5.57;;;19.70;96.70;;;;;;4914149;29;20508;-69
2022/11/04 07:02:12;;;;;;;15.43;5.75;;;19.70;96.70;;;;;;4913844;29;20059;-67
2022/11/04 07:05:16;;;;;;;32.97;7.60;;;19.80;96.80;;;;;;4915192;29;20385;-68
2022/11/04 07:08:20;;;;;;;12.65;6.80;;;20.10;96.70;;;;;;4914875;29;20510;-68
2022/11/04 07:11:25;;;;;;;22.40;6.70;;;20.30;96.50;;;;;;4914919;29;20051;-68
2022/11/04 07:14:30;;;;;;;15.68;6.80;;;20.50;96.40;;;;;;4914934;29;20043;-68
2022/11/04 07:17:34;;;;;;;29.63;8.38;;;20.60;96.40;;;;;;4914689;29;20043;-68
2022/11/04 07:20:38;;;;;;;23.83;9.05;;;20.70;96.40;;;;;;4913367;29;20051;-66
2022/11/04 07:23:43;;;;;;;28.50;9.57;;;20.80;96.40;;;;;;4914768;29;20051;-67
2022/11/04 07:26:46;;;;;;;20.35;8.32;;;20.80;96.50;;;;;;4915228;29;20051;-67
2022/11/04 07:29:51;;;;;;;31.55;9.85;;;20.90;96.30;;;;;;4918823;29;20055;-64
2022/11/04 07:32:55;;;;;;;16.52;8.98;;;20.90;96.20;;;;;;4918851;29;20500;-65
2022/11/04 07:36:05;;;;;;;24.05;9.40;;;21.00;96.40;;;;;;4918756;29;20055;-66
2022/11/04 07:39:09;;;;;;;25.73;8.32;;;20.90;96.50;;;;;;4918663;29;20051;-66
2022/11/04 07:42:13;;;;;;;21.90;9.77;;;20.90;96.50;;;;;;4918560;29;20055;-65
2022/11/04 07:45:17;;;;;;;27.75;9.73;;;21.00;96.90;;;;;;4918170;29;20039;-65
2022/11/04 07:48:21;;;;;;;24.45;8.57;;;21.00;96.90;;;;;;4917217;29;20055;-66
2022/11/04 07:51:25;;;;;;;25.92;10.93;;;21.10;96.90;;;;;;4918128;29;20047;-67
2022/11/04 07:54:30;;;;;;;28.95;10.20;;;21.20;96.80;;;;;;4918353;29;20048;-65
2022/11/04 07:57:34;;;;;;;32.40;9.27;;;21.30;96.60;;;;;;4917366;29;20051;-64
2022/11/04 08:00:38;;;;;;;28.60;9.43;;;21.50;96.40;;;;;;4918011;29;20059;-65
2022/11/04 08:03:42;;;;;;;19.42;9.23;;;21.60;96.00;;;;;;4917999;29;20109;-64
2022/11/04 08:06:46;;;;;;;37.60;9.57;;;21.60;96.00;;;;;;4917914;29;20055;-66
2022/11/04 08:09:50;;;;;;;28.27;10.00;;;21.80;95.90;;;;;;4917553;29;20420;-66
2022/11/04 08:12:54;;;;;;;38.75;9.95;;;21.80;95.70;;;;;;4917627;29;20109;-64
2022/11/04 08:16:03;;;;;;;29.00;10.98;;;21.90;95.50;;;;;;4917863;29;20059;-65
2022/11/04 08:19:07;;;;;;;40.90;10.00;;;21.90;95.80;;;;;;4917521;29;20047;-64
2022/11/04 08:22:11;;;;;;;24.30;10.48;;;22.00;96.30;;;;;;4916712;29;20423;-65
2022/11/04 08:25:15;;;;;;;27.10;10.68;;;21.90;96.50;;;;;;4917592;29;20052;-65
2022/11/04 08:28:19;;;;;;;30.38;10.35;;;21.90;96.50;;;;;;4916606;29;20047;-65
2022/11/04 08:31:25;;;;;;;31.77;11.10;;;21.90;96.30;;;;;;4917619;29;20036;-65
2022/11/04 08:34:29;;;;;;;41.65;10.18;;;21.90;96.50;;;;;;4917309;29;20149;-65
2022/11/04 08:37:33;;;;;;;26.17;10.57;;;21.90;96.50;;;;;;4917180;29;20059;-65
2022/11/04 08:40:36;;;;;;;32.42;10.45;;;22.00;96.80;;;;;;4917005;29;20098;-66
2022/11/04 08:43:40;;;;;;;27.80;10.27;;;22.00;97.00;;;;;;4917298;29;20122;-66
2022/11/04 08:46:45;;;;;;;33.55;10.60;;;22.00;96.90;;;;;;4917341;29;20055;-65
2022/11/04 08:49:49;;;;;;;33.72;10.35;;;22.00;97.60;;;;;;4916093;29;20063;-67
2022/11/04 08:52:53;;;;;;;38.45;10.60;;;21.90;97.70;;;;;;4917344;29;20039;-64
2022/11/04 08:55:57;;;;;;;38.35;11.15;;;21.90;97.60;;;;;;4917291;29;20070;-64
2022/11/04 08:59:03;;;;;;;23.40;9.38;;;21.90;98.00;;;;;;4916800;29;20441;-67
2022/11/04 09:02:14;;;;;;;27.75;9.50;;;21.90;97.10;;;;;;4917183;29;20063;-66
2022/11/04 09:05:18;;;;;;;30.58;10.52;;;21.90;97.50;;;;;;4917312;29;20047;-67
2022/11/04 09:08:22;;;;;;;35.97;10.45;;;21.80;98.00;;;;;;4917299;29;20067;-67
2022/11/04 09:11:27;;;;;;;30.58;10.27;;;21.80;98.40;;;;;;4916939;29;20047;-68
2022/11/04 09:14:31;;;;;;;24.55;10.52;;;21.80;99.30;;;;;;4917171;29;20068;-68
2022/11/04 09:17:35;;;;;;;21.65;8.48;;;21.60;99.60;;;;;;4916813;29;20047;-66
2022/11/04 09:20:41;;;;;;;29.10;9.93;;;21.60;99.00;;;;;;4916696;29;20075;-67
2022/11/04 09:23:45;;;;;;;30.33;9.05;;;21.50;99.40;;;;;;4916391;29;20051;-69
2022/11/04 09:26:49;;;;;;;32.15;11.15;;;21.40;99.80;;;;;;4916403;29;20054;-68
2022/11/04 09:29:53;;;;;;;23.55;10.32;;;21.40;99.90;;;;;;4916506;29;20401;-67
2022/11/04 09:32:58;;;;;;;29.70;11.02;;;21.50;99.90;;;;;;4916492;29;20051;-68
2022/11/04 09:36:03;;;;;;;33.05;12.30;;;21.50;99.90;;;;;;4916236;29;20055;-68
2022/11/04 09:39:07;;;;;;;30.83;12.85;;;21.50;99.90;;;;;;4916151;29;20051;-67
2022/11/04 09:42:50;;;;;;;28.67;12.13;;;21.50;99.90;;;;;;4916465;29;20059;-67
2022/11/04 09:45:55;;;;;;;35.85;14.27;;;21.50;99.90;;;;;;4916675;29;20051;-67
2022/11/04 09:49:04;;;;;;;40.75;13.80;;;21.50;99.90;;;;;;4915962;29;20548;-67
2022/11/04 09:52:24;;;;;;;35.88;13.68;;;21.50;99.90;;;;;;4916275;29;20404;-68
2022/11/04 09:55:45;;;;;;;40.25;14.90;;;21.50;99.90;;;;;;4916195;29;20051;-68
2022/11/04 09:58:51;;;;;;;35.03;14.68;;;21.60;99.90;;;;;;4915228;29;20050;-68
2022/11/04 10:02:20;;;;;;;44.55;15.20;;;21.70;99.90;;;;;;4914891;29;20539;-67
2022/11/04 10:05:42;;;;;;;47.05;15.02;;;21.90;99.90;;;;;;4916055;29;20043;-68
2022/11/04 10:09:00;;;;;;;46.83;14.63;;;22.10;99.90;;;;;;4915972;29;20055;-66
2022/11/04 10:12:16;;;;;;;58.72;13.90;;;22.20;99.90;;;;;;4914897;29;20044;-66
2022/11/04 10:15:51;;;;;;;56.92;14.88;;;22.30;99.90;;;;;;4915454;29;20365;-66
2022/11/04 10:19:09;;;;;;;49.30;13.93;;;22.30;99.90;;;;;;4914888;29;20047;-66
2022/11/04 10:22:37;;;;;;;51.90;14.73;;;22.30;99.90;;;;;;4915362;29;20055;-66
2022/11/04 10:25:59;;;;;;;49.30;13.43;;;22.50;99.90;;;;;;4915016;29;20067;-66
2022/11/04 10:29:09;;;;;;;46.15;13.57;;;22.60;99.90;;;;;;4914381;29;20047;-67
2022/11/04 10:32:31;;;;;;;39.63;14.95;;;22.60;99.90;;;;;;4915084;29;20055;-68
2022/11/04 10:35:44;;;;;;;56.65;14.15;;;22.60;99.90;;;;;;4915161;29;20062;-66
2022/11/04 10:38:51;;;;;;;44.15;13.95;;;22.60;99.90;;;;;;4915126;29;20058;-66
2022/11/04 10:41:57;;;;;;;45.72;13.32;;;22.50;99.90;;;;;;4915051;29;20059;-67
2022/11/04 10:45:01;;;;;;;37.22;14.35;;;22.50;99.90;;;;;;4915196;29;20047;-67
2022/11/04 10:48:31;;;;;;;40.70;13.77;;;22.40;99.90;;;;;;4913974;29;20055;-68
2022/11/04 10:51:35;;;;;;;60.88;15.00;;;22.40;99.90;;;;;;4919411;29;20059;-67
2022/11/04 10:54:42;;;;;;;47.08;15.65;;;22.40;99.90;;;;;;4914255;29;20043;-66
2022/11/04 10:57:46;;;;;;;46.88;15.50;;;22.30;99.90;;;;;;4914914;29;20043;-66
2022/11/04 11:00:50;;;;;;;59.47;18.52;;;22.20;99.90;;;;;;4914544;29;20055;-67
2022/11/04 11:03:55;;;;;;;57.47;15.55;;;22.20;99.90;;;;;;4914237;29;20047;-66
2022/11/04 11:07:10;;;;;;;64.60;18.20;;;22.20;99.90;;;;;;4913960;29;20051;-65
2022/11/04 11:10:26;;;;;;;54.25;16.83;;;22.10;99.90;;;;;;4914855;29;20307;-66
2022/11/04 11:13:45;;;;;;;46.55;13.10;;;22.10;99.90;;;;;;4914824;29;20043;-67
2022/11/04 11:16:49;;;;;;;41.28;12.00;;;22.00;99.90;;;;;;4914611;29;20613;-65
2022/11/04 11:19:55;;;;;;;37.35;11.90;;;22.00;99.90;;;;;;4914648;29;20400;-66
2022/11/04 11:23:00;;;;;;;34.92;11.40;;;21.90;99.90;;;;;;4914629;29;20059;-65
2022/11/04 11:26:25;;;;;;;35.63;11.35;;;21.90;99.90;;;;;;4914731;29;20365;-66
2022/11/04 11:29:39;;;;;;;27.92;10.38;;;21.90;99.90;;;;;;4918147;29;20047;-67
2022/11/04 11:32:43;;;;;;;32.42;12.02;;;21.90;99.90;;;;;;4914499;29;20071;-67
2022/11/04 11:35:59;;;;;;;33.50;10.27;;;21.80;99.90;;;;;;4914034;29;20388;-66
2022/11/04 11:39:16;;;;;;;43.08;11.43;;;21.90;99.90;;;;;;4914427;29;20051;-66
2022/11/04 11:42:20;;;;;;;42.13;13.30;;;21.80;99.90;;;;;;4914527;29;20047;-65
2022/11/04 11:45:25;;;;;;;43.13;11.25;;;21.80;99.90;;;;;;4913743;29;20535;-65
2022/11/04 11:48:41;;;;;;;30.70;7.97;;;21.80;99.90;;;;;;4914373;29;20063;-65
2022/11/04 11:51:48;;;;;;;32.83;7.30;;;21.60;99.60;;;;;;4914452;29;20048;-66
2022/11/04 11:55:02;;;;;;;36.92;7.75;;;21.50;98.10;;;;;;4914545;29;20070;-66
2022/11/04 11:58:45;;;;;;;35.33;7.88;;;21.50;97.80;;;;;;4914496;29;20047;-67
2022/11/04 12:02:00;;;;;;;32.88;6.40;;;21.40;97.30;;;;;;4914864;29;20063;-68
2022/11/04 12:05:09;;;;;;;27.63;6.82;;;21.40;96.80;;;;;;4902403;29;20043;-67
2022/11/04 12:08:43;;;;;;;44.83;7.95;;;21.30;95.90;;;;;;4902309;29;20051;-67
2022/11/04 12:11:59;;;;;;;32.53;6.82;;;21.30;96.10;;;;;;4913782;29;20055;-67
2022/11/04 12:15:22;;;;;;;40.83;7.55;;;21.20;96.10;;;;;;4917753;29;20056;-69
2022/11/04 12:19:05;;;;;;;34.58;7.28;;;21.10;95.20;;;;;;4917151;29;20047;-67
2022/11/04 12:22:26;;;;;;;38.83;7.57;;;21.00;95.80;;;;;;4919817;29;20055;-69
2022/11/04 12:25:37;;;;;;;33.28;6.95;;;21.00;96.20;;;;;;4917892;29;20055;-67
2022/11/04 12:28:57;;;;;;;19.00;5.33;;;20.90;96.60;;;;;;4917775;29;20047;-67
2022/11/04 12:32:01;;;;;;;16.80;5.05;;;20.80;96.30;;;;;;4916700;29;20047;-67
2022/11/04 12:35:22;;;;;;;24.60;6.13;;;20.70;96.40;;;;;;4917396;29;20050;-67
2022/11/04 12:39:04;;;;;;;20.75;5.30;;;20.50;96.30;;;;;;4917333;29;20047;-67
2022/11/04 12:42:25;;;;;;;17.52;5.10;;;20.40;97.30;;;;;;4917372;29;20129;-68
2022/11/04 12:45:44;;;;;;;14.07;4.57;;;20.10;97.30;;;;;;4917402;29;20131;-67
2022/11/04 12:48:55;;;;;;;20.35;5.43;;;19.80;96.70;;;;;;4917164;29;20417;-69
2022/11/04 12:52:20;;;;;;;15.02;4.30;;;19.70;96.10;;;;;;4916216;29;20047;-70
2022/11/04 12:55:47;;;;;;;17.02;4.50;;;19.60;96.60;;;;;;4917545;29;20055;-68
2022/11/04 12:59:21;;;;;;;10.15;3.25;;;19.50;96.90;;;;;;4917046;29;20047;-66
2022/11/04 13:03:11;;;;;;;13.07;4.28;;;19.40;98.30;;;;;;4916909;29;20055;-68
2022/11/04 13:06:37;;;;;;;11.57;4.25;;;19.10;99.90;;;;;;4917068;29;20508;-66
2022/11/04 13:09:53;;;;;;;17.55;4.85;;;19.10;99.90;;;;;;4916861;29;20047;-68
2022/11/04 13:13:00;;;;;;;15.15;4.65;;;19.00;99.90;;;;;;4917111;29;20047;-68
2022/11/04 13:16:10;;;;;;;13.20;4.40;;;18.90;99.90;;;;;;4915980;29;20054;-66
2022/11/04 13:19:56;;;;;;;16.30;4.72;;;18.90;99.90;;;;;;4917507;29;20055;-67
2022/11/04 13:23:07;;;;;;;31.15;6.75;;;18.90;99.90;;;;;;4914779;29;20063;-68
2022/11/04 13:26:14;;;;;;;27.05;7.70;;;18.90;99.90;;;;;;4913225;29;20047;-65
2022/11/04 13:29:20;;;;;;;34.47;9.25;;;19.00;99.90;;;;;;4916509;29;20084;-66
2022/11/04 13:32:34;;;;;;;29.77;8.23;;;18.90;99.90;;;;;;4916719;29;20059;-69
2022/11/04 13:36:00;;;;;;;32.33;8.15;;;18.90;99.90;;;;;;4916255;29;20047;-68
2022/11/04 13:39:13;;;;;;;24.40;5.53;;;18.90;99.90;;;;;;4915373;29;20412;-67
2022/11/04 13:42:43;;;;;;;27.27;6.78;;;18.90;99.90;;;;;;4916087;29;20208;-67
2022/11/04 13:45:53;;;;;;;30.23;6.70;;;18.90;99.90;;;;;;4915634;29;20051;-65
2022/11/04 13:49:14;;;;;;;26.13;7.05;;;19.00;99.90;;;;;;4915755;29;20051;-66
2022/11/04 13:52:19;;;;;;;19.58;5.13;;;18.90;99.90;;;;;;4915925;29;20059;-65
2022/11/04 13:55:23;;;;;;;23.65;5.85;;;18.80;99.90;;;;;;4916141;29;20063;-65
2022/11/04 13:58:27;;;;;;;21.55;5.20;;;18.70;99.90;;;;;;4915567;29;20400;-65
2022/11/04 14:01:33;;;;;;;21.77;5.53;;;18.70;99.90;;;;;;4915515;29;20507;-66
2022/11/04 14:04:39;;;;;;;27.10;8.35;;;18.70;99.90;;;;;;4915831;29;20059;-66
2022/11/04 14:08:01;;;;;;;26.27;7.00;;;18.60;99.90;;;;;;4915090;29;20095;-66
2022/11/04 14:11:07;;;;;;;27.23;7.60;;;18.60;99.90;;;;;;4915139;29;20066;-66
2022/11/04 14:14:18;;;;;;;29.58;7.97;;;18.50;99.90;;;;;;4915024;29;20047;-66
2022/11/04 14:17:34;;;;;;;32.72;8.23;;;18.50;99.90;;;;;;4915760;29;20063;-66
2022/11/04 14:21:01;;;;;;;26.60;7.28;;;18.50;99.90;;;;;;4915263;29;20515;-65
2022/11/04 14:24:12;;;;;;;34.42;7.43;;;18.40;99.90;;;;;;4915372;29;20067;-66
2022/11/04 14:27:46;;;;;;;31.87;7.77;;;18.40;99.90;;;;;;4915060;29;20051;-67
2022/11/04 14:30:56;;;;;;;34.80;8.50;;;18.40;99.90;;;;;;4919144;29;20043;-67
2022/11/04 14:34:00;;;;;;;29.52;7.30;;;18.50;99.90;;;;;;4915186;29;20511;-66
2022/11/04 14:37:21;;;;;;;16.45;5.00;;;18.50;99.90;;;;;;4914900;29;20043;-68
2022/11/04 14:40:45;;;;;;;19.38;5.45;;;18.50;99.90;;;;;;4915974;29;20051;-66
2022/11/04 14:43:53;;;;;;;24.92;6.03;;;18.50;99.90;;;;;;4915464;29;20408;-64
2022/11/04 14:47:25;;;;;;;20.00;4.47;;;18.50;99.90;;;;;;4915091;29;20047;-64
2022/11/04 14:50:29;;;;;;;;;;;18.50;99.90;;;;;;4915720;29;20412;-66
2022/11/04 14:53:36;;;;;;;23.42;5.53;;;18.50;99.90;;;;;;4915448;29;20283;-66
2022/11/04 14:56:40;;;;;;;27.25;5.53;;;18.50;99.90;;;;;;4914925;29;20122;-65
2022/11/04 14:59:45;;;;;;;17.58;4.50;;;18.50;99.90;;;;;;4914179;29;20144;-66
2022/11/04 15:03:22;;;;;;;22.33;4.00;;;18.50;99.90;;;;;;4914673;29;20412;-66
2022/11/04 15:06:28;;;;;;;16.25;3.40;;;18.60;99.90;;;;;;4914834;29;20043;-64
2022/11/04 15:09:39;;;;;;;16.88;3.58;;;18.60;99.90;;;;;;4914731;29;20039;-66
2022/11/04 15:12:50;;;;;;;16.65;3.55;;;18.50;99.90;;;;;;4915122;29;20047;-64
2022/11/04 15:15:57;;;;;;;15.88;3.80;;;18.50;99.90;;;;;;4914105;29;20047;-64
2022/11/04 15:19:01;;;;;;;13.20;3.90;;;18.50;99.90;;;;;;4915048;29;20055;-64
2022/11/04 15:22:05;;;;;;;12.90;3.97;;;18.50;99.90;;;;;;4914475;29;20067;-66
2022/11/04 15:25:10;;;;;;;15.40;4.10;;;18.40;99.90;;;;;;4914962;29;20047;-65
2022/11/04 15:28:39;;;;;;;16.13;3.30;;;18.40;99.90;;;;;;4914643;29;20432;-64
2022/11/04 15:31:54;;;;;;;14.15;4.07;;;18.30;99.90;;;;;;4914544;29;20043;-64
2022/11/04 15:34:58;;;;;;;19.80;4.10;;;18.30;99.90;;;;;;4914597;29;20051;-66
2022/11/04 15:38:03;;;;;;;15.63;4.47;;;18.20;99.90;;;;;;4913759;29;20400;-65
2022/11/04 15:44:32;;;;;;;11.50;4.78;;;18.20;99.90;;;;;;4914423;29;20055;-64
2022/11/04 15:47:37;;;;;;;17.30;4.57;;;18.10;99.90;;;;;;4914427;29;20420;-65
2022/11/04 15:50:43;;;;;;;15.18;4.07;;;18.10;99.90;;;;;;4917950;29;20059;-65
2022/11/04 15:53:53;;;;;;;16.85;5.25;;;18.10;99.90;;;;;;4917888;29;20043;-66
2022/11/04 15:57:01;;;;;;;11.60;4.60;;;18.20;99.90;;;;;;4917772;29;20039;-65
2022/11/04 16:00:13;;;;;;;14.10;3.80;;;18.20;99.90;;;;;;4917657;29;20392;-64
2022/11/04 16:03:20;;;;;;;14.65;4.03;;;18.20;99.90;;;;;;4917885;29;20428;-65
2022/11/04 16:06:36;;;;;;;12.02;3.80;;;18.20;99.90;;;;;;4917927;29;20071;-65
2022/11/04 16:09:50;;;;;;;11.15;4.40;;;18.20;99.90;;;;;;4917796;29;20047;-64
2022/11/04 16:12:59;;;;;;;13.38;4.13;;;18.20;99.90;;;;;;4916921;29;20125;-64
2022/11/04 16:16:20;;;;;;;13.40;5.05;;;18.20;99.90;;;;;;4917414;29;20039;-65
2022/11/04 16:19:26;;;;;;;12.07;4.40;;;18.20;99.90;;;;;;4917659;29;20550;-64
2022/11/04 16:22:34;;;;;;;12.43;3.70;;;18.10;99.90;;;;;;4917605;29;20129;-64
2022/11/04 16:25:38;;;;;;;13.30;4.15;;;18.00;99.90;;;;;;4917536;29;20043;-64
2022/11/04 16:28:42;;;;;;;10.98;4.22;;;18.00;99.90;;;;;;4917618;29;20523;-65
2022/11/04 16:32:16;;;;;;;10.20;3.72;;;17.90;99.90;;;;;;4917623;29;20051;-64
2022/11/04 16:35:26;;;;;;;13.43;4.47;;;17.80;99.90;;;;;;4917332;29;20047;-65
2022/11/04 16:38:30;;;;;;;8.55;3.38;;;17.70;99.90;;;;;;4917306;29;20047;-65
2022/11/04 16:41:39;;;;;;;13.13;3.08;;;17.60;99.90;;;;;;4917439;29;20055;-67
2022/11/04 16:44:48;;;;;;;13.73;3.92;;;17.50;99.90;;;;;;4917376;29;20081;-65
2022/11/04 16:47:53;;;;;;;14.80;5.43;;;17.50;99.90;;;;;;4916637;29;20043;-65